sensor_id;sensor_type;location;lat;lon;timestamp;P1;durP1;ratioP1;P2;durP2;ratioP2
21643;SDS011;10983;51.982;9.226;2023-04-24T00:00:15;1.08;;;1.02;;
21643;SDS011;10983;51.982;9.226;2023-04-24T00:02:44;0.93;;;0.93;;
21643;SDS011;10983;51.982;9.226;2023-04-24T00:05:14;0.10;;;0.10;;
21643;SDS011;10983;51.982;9.226;2023-04-24T00:07:43;1.85;;;1.55;;
21643;SDS011;10983;51.982;9.226;2023-04-24T00:10:14;0.77;;;0.77;;
21643;SDS011;10983;51.982;9.226;2023-04-24T00:12:41;0.40;;;0.40;;
21643;SDS011;10983;51.982;9.226;2023-04-24T00:15:09;0.75;;;0.75;;
21643;SDS011;10983;51.982;9.226;2023-04-24T00:17:37;0.00;;;0.00;;
21643;SDS011;10983;51.982;9.226;2023-04-24T00:20:05;0.20;;;0.20;;
21643;SDS011;10983;51.982;9.226;2023-04-24T00:22:35;0.10;;;0.10;;
21643;SDS011;10983;51.982;9.226;2023-04-24T00:25:02;0.32;;;0.32;;
21643;SDS011;10983;51.982;9.226;2023-04-24T00:27:30;0.10;;;0.10;;
21643;SDS011;10983;51.982;9.226;2023-04-24T00:29:58;0.10;;;0.10;;
21643;SDS011;10983;51.982;9.226;2023-04-24T00:32:25;0.10;;;0.10;;
21643;SDS011;10983;51.982;9.226;2023-04-24T00:34:53;0.10;;;0.10;;
21643;SDS011;10983;51.982;9.226;2023-04-24T00:37:21;0.10;;;0.10;;
21643;SDS011;10983;51.982;9.226;2023-04-24T00:39:50;0.82;;;0.82;;
21643;SDS011;10983;51.982;9.226;2023-04-24T00:42:17;0.10;;;0.10;;
21643;SDS011;10983;51.982;9.226;2023-04-24T00:44:44;0.20;;;0.20;;
21643;SDS011;10983;51.982;9.226;2023-04-24T00:47:12;0.10;;;0.10;;
21643;SDS011;10983;51.982;9.226;2023-04-24T00:49:41;0.10;;;0.10;;
21643;SDS011;10983;51.982;9.226;2023-04-24T00:52:08;0.63;;;0.63;;
21643;SDS011;10983;51.982;9.226;2023-04-24T00:54:36;0.10;;;0.10;;
21643;SDS011;10983;51.982;9.226;2023-04-24T00:57:05;0.13;;;0.13;;
21643;SDS011;10983;51.982;9.226;2023-04-24T00:59:33;0.20;;;0.20;;
21643;SDS011;10983;51.982;9.226;2023-04-24T01:02:01;0.10;;;0.10;;
21643;SDS011;10983;51.982;9.226;2023-04-24T01:04:29;0.10;;;0.10;;
21643;SDS011;10983;51.982;9.226;2023-04-24T01:06:59;0.10;;;0.10;;
21643;SDS011;10983;51.982;9.226;2023-04-24T01:09:27;0.10;;;0.10;;
21643;SDS011;10983;51.982;9.226;2023-04-24T01:11:54;0.00;;;0.00;;
21643;SDS011;10983;51.982;9.226;2023-04-24T01:14:23;0.20;;;0.20;;
21643;SDS011;10983;51.982;9.226;2023-04-24T01:16:51;0.20;;;0.20;;
21643;SDS011;10983;51.982;9.226;2023-04-24T01:19:19;0.20;;;0.20;;
21643;SDS011;10983;51.982;9.226;2023-04-24T01:21:46;0.15;;;0.15;;
21643;SDS011;10983;51.982;9.226;2023-04-24T01:24:18;0.10;;;0.10;;
21643;SDS011;10983;51.982;9.226;2023-04-24T01:26:45;0.10;;;0.10;;
21643;SDS011;10983;51.982;9.226;2023-04-24T01:29:13;0.10;;;0.10;;
21643;SDS011;10983;51.982;9.226;2023-04-24T01:31:41;0.10;;;0.10;;
21643;SDS011;10983;51.982;9.226;2023-04-24T01:34:08;0.10;;;0.10;;
21643;SDS011;10983;51.982;9.226;2023-04-24T01:36:36;0.50;;;0.50;;
21643;SDS011;10983;51.982;9.226;2023-04-24T01:39:04;0.10;;;0.10;;
21643;SDS011;10983;51.982;9.226;2023-04-24T01:41:34;2.17;;;0.52;;
21643;SDS011;10983;51.982;9.226;2023-04-24T01:44:02;0.20;;;0.20;;
21643;SDS011;10983;51.982;9.226;2023-04-24T01:46:30;0.10;;;0.10;;
21643;SDS011;10983;51.982;9.226;2023-04-24T01:48:58;0.10;;;0.10;;
21643;SDS011;10983;51.982;9.226;2023-04-24T01:51:27;0.20;;;0.20;;
21643;SDS011;10983;51.982;9.226;2023-04-24T01:53:56;0.15;;;0.15;;
21643;SDS011;10983;51.982;9.226;2023-04-24T01:56:23;0.10;;;0.10;;
21643;SDS011;10983;51.982;9.226;2023-04-24T01:58:53;0.52;;;0.52;;
21643;SDS011;10983;51.982;9.226;2023-04-24T02:01:23;0.28;;;0.28;;
21643;SDS011;10983;51.982;9.226;2023-04-24T02:03:51;0.15;;;0.15;;
21643;SDS011;10983;51.982;9.226;2023-04-24T02:06:19;0.00;;;0.00;;
21643;SDS011;10983;51.982;9.226;2023-04-24T02:08:46;0.10;;;0.10;;
21643;SDS011;10983;51.982;9.226;2023-04-24T02:11:14;0.10;;;0.10;;
21643;SDS011;10983;51.982;9.226;2023-04-24T02:13:41;0.10;;;0.10;;
21643;SDS011;10983;51.982;9.226;2023-04-24T02:16:10;0.10;;;0.10;;
21643;SDS011;10983;51.982;9.226;2023-04-24T02:18:37;0.22;;;0.22;;
21643;SDS011;10983;51.982;9.226;2023-04-24T02:21:05;0.50;;;0.50;;
21643;SDS011;10983;51.982;9.226;2023-04-24T02:23:32;0.10;;;0.10;;
21643;SDS011;10983;51.982;9.226;2023-04-24T02:26:00;0.10;;;0.10;;
21643;SDS011;10983;51.982;9.226;2023-04-24T02:28:27;0.10;;;0.10;;
21643;SDS011;10983;51.982;9.226;2023-04-24T02:30:55;0.43;;;0.43;;
21643;SDS011;10983;51.982;9.226;2023-04-24T02:33:24;0.20;;;0.20;;
21643;SDS011;10983;51.982;9.226;2023-04-24T02:35:53;0.00;;;0.00;;
21643;SDS011;10983;51.982;9.226;2023-04-24T02:38:20;0.10;;;0.10;;
21643;SDS011;10983;51.982;9.226;2023-04-24T02:40:48;0.30;;;0.30;;
21643;SDS011;10983;51.982;9.226;2023-04-24T02:43:18;0.10;;;0.10;;
21643;SDS011;10983;51.982;9.226;2023-04-24T02:45:46;0.00;;;0.00;;
21643;SDS011;10983;51.982;9.226;2023-04-24T02:48:13;0.10;;;0.10;;
21643;SDS011;10983;51.982;9.226;2023-04-24T02:50:42;0.10;;;0.10;;
21643;SDS011;10983;51.982;9.226;2023-04-24T02:53:09;0.43;;;0.43;;
21643;SDS011;10983;51.982;9.226;2023-04-24T02:55:37;0.10;;;0.10;;
21643;SDS011;10983;51.982;9.226;2023-04-24T02:58:04;0.30;;;0.30;;
21643;SDS011;10983;51.982;9.226;2023-04-24T03:00:33;0.10;;;0.10;;
21643;SDS011;10983;51.982;9.226;2023-04-24T03:03:00;0.28;;;0.28;;
21643;SDS011;10983;51.982;9.226;2023-04-24T03:05:29;0.30;;;0.30;;
21643;SDS011;10983;51.982;9.226;2023-04-24T03:07:59;0.10;;;0.10;;
21643;SDS011;10983;51.982;9.226;2023-04-24T03:10:26;0.10;;;0.10;;
21643;SDS011;10983;51.982;9.226;2023-04-24T03:12:53;0.20;;;0.20;;
21643;SDS011;10983;51.982;9.226;2023-04-24T03:15:21;0.40;;;0.40;;
21643;SDS011;10983;51.982;9.226;2023-04-24T03:17:49;0.10;;;0.10;;
21643;SDS011;10983;51.982;9.226;2023-04-24T03:20:16;0.52;;;0.40;;
21643;SDS011;10983;51.982;9.226;2023-04-24T03:22:44;0.10;;;0.10;;
21643;SDS011;10983;51.982;9.226;2023-04-24T03:25:12;0.10;;;0.10;;
21643;SDS011;10983;51.982;9.226;2023-04-24T03:27:40;0.20;;;0.20;;
21643;SDS011;10983;51.982;9.226;2023-04-24T03:30:09;0.10;;;0.10;;
21643;SDS011;10983;51.982;9.226;2023-04-24T03:32:36;0.22;;;0.22;;
21643;SDS011;10983;51.982;9.226;2023-04-24T03:35:05;3.33;;;0.30;;
21643;SDS011;10983;51.982;9.226;2023-04-24T03:37:34;0.10;;;0.10;;
21643;SDS011;10983;51.982;9.226;2023-04-24T03:40:02;0.10;;;0.10;;
21643;SDS011;10983;51.982;9.226;2023-04-24T03:42:31;0.10;;;0.10;;
21643;SDS011;10983;51.982;9.226;2023-04-24T03:44:58;0.10;;;0.10;;
21643;SDS011;10983;51.982;9.226;2023-04-24T03:47:25;0.20;;;0.20;;
21643;SDS011;10983;51.982;9.226;2023-04-24T03:49:53;0.10;;;0.10;;
21643;SDS011;10983;51.982;9.226;2023-04-24T03:52:21;0.20;;;0.20;;
21643;SDS011;10983;51.982;9.226;2023-04-24T03:54:49;0.20;;;0.20;;
21643;SDS011;10983;51.982;9.226;2023-04-24T03:57:16;0.30;;;0.30;;
21643;SDS011;10983;51.982;9.226;2023-04-24T03:59:45;0.17;;;0.17;;
21643;SDS011;10983;51.982;9.226;2023-04-24T04:02:12;0.13;;;0.13;;
21643;SDS011;10983;51.982;9.226;2023-04-24T04:04:40;0.10;;;0.10;;
21643;SDS011;10983;51.982;9.226;2023-04-24T04:07:08;0.50;;;0.50;;
21643;SDS011;10983;51.982;9.226;2023-04-24T04:09:35;0.50;;;0.50;;
21643;SDS011;10983;51.982;9.226;2023-04-24T04:12:03;0.20;;;0.20;;
21643;SDS011;10983;51.982;9.226;2023-04-24T04:14:30;0.10;;;0.10;;
21643;SDS011;10983;51.982;9.226;2023-04-24T04:16:59;0.25;;;0.25;;
21643;SDS011;10983;51.982;9.226;2023-04-24T04:19:26;0.20;;;0.20;;
21643;SDS011;10983;51.982;9.226;2023-04-24T04:21:54;0.70;;;0.35;;
21643;SDS011;10983;51.982;9.226;2023-04-24T04:24:22;0.10;;;0.10;;
21643;SDS011;10983;51.982;9.226;2023-04-24T04:26:50;0.25;;;0.25;;
21643;SDS011;10983;51.982;9.226;2023-04-24T04:29:18;0.10;;;0.10;;
21643;SDS011;10983;51.982;9.226;2023-04-24T04:31:45;0.68;;;0.68;;
21643;SDS011;10983;51.982;9.226;2023-04-24T04:34:14;0.40;;;0.40;;
21643;SDS011;10983;51.982;9.226;2023-04-24T04:36:42;0.10;;;0.10;;
21643;SDS011;10983;51.982;9.226;2023-04-24T04:39:10;0.68;;;0.68;;
21643;SDS011;10983;51.982;9.226;2023-04-24T04:41:41;0.40;;;0.40;;
21643;SDS011;10983;51.982;9.226;2023-04-24T04:44:09;0.10;;;0.10;;
21643;SDS011;10983;51.982;9.226;2023-04-24T04:46:36;0.30;;;0.30;;
21643;SDS011;10983;51.982;9.226;2023-04-24T04:49:04;0.10;;;0.10;;
21643;SDS011;10983;51.982;9.226;2023-04-24T04:51:33;0.10;;;0.10;;
21643;SDS011;10983;51.982;9.226;2023-04-24T04:54:00;0.10;;;0.10;;
21643;SDS011;10983;51.982;9.226;2023-04-24T04:56:28;0.10;;;0.10;;
21643;SDS011;10983;51.982;9.226;2023-04-24T04:58:55;0.10;;;0.10;;
21643;SDS011;10983;51.982;9.226;2023-04-24T05:01:23;0.10;;;0.10;;
21643;SDS011;10983;51.982;9.226;2023-04-24T05:03:51;0.10;;;0.10;;
21643;SDS011;10983;51.982;9.226;2023-04-24T05:06:19;3.78;;;3.53;;
21643;SDS011;10983;51.982;9.226;2023-04-24T05:08:50;0.38;;;0.38;;
21643;SDS011;10983;51.982;9.226;2023-04-24T05:11:22;0.40;;;0.40;;
21643;SDS011;10983;51.982;9.226;2023-04-24T05:13:49;0.20;;;0.20;;
21643;SDS011;10983;51.982;9.226;2023-04-24T05:16:17;0.38;;;0.38;;
21643;SDS011;10983;51.982;9.226;2023-04-24T05:18:44;0.20;;;0.20;;
21643;SDS011;10983;51.982;9.226;2023-04-24T05:21:12;0.20;;;0.20;;
21643;SDS011;10983;51.982;9.226;2023-04-24T05:23:39;0.10;;;0.10;;
21643;SDS011;10983;51.982;9.226;2023-04-24T05:26:08;0.63;;;0.63;;
21643;SDS011;10983;51.982;9.226;2023-04-24T05:28:35;0.30;;;0.20;;
21643;SDS011;10983;51.982;9.226;2023-04-24T05:31:03;0.57;;;0.57;;
21643;SDS011;10983;51.982;9.226;2023-04-24T05:33:31;0.20;;;0.20;;
21643;SDS011;10983;51.982;9.226;2023-04-24T05:35:58;0.20;;;0.20;;
21643;SDS011;10983;51.982;9.226;2023-04-24T05:38:25;0.88;;;0.88;;
21643;SDS011;10983;51.982;9.226;2023-04-24T05:40:53;0.47;;;0.47;;
21643;SDS011;10983;51.982;9.226;2023-04-24T05:43:22;0.30;;;0.30;;
21643;SDS011;10983;51.982;9.226;2023-04-24T05:45:49;0.20;;;0.20;;
21643;SDS011;10983;51.982;9.226;2023-04-24T05:48:16;0.60;;;0.60;;
21643;SDS011;10983;51.982;9.226;2023-04-24T05:50:44;0.35;;;0.35;;
21643;SDS011;10983;51.982;9.226;2023-04-24T05:53:14;0.57;;;0.57;;
21643;SDS011;10983;51.982;9.226;2023-04-24T05:55:42;0.20;;;0.20;;
21643;SDS011;10983;51.982;9.226;2023-04-24T05:58:09;1.48;;;1.38;;
21643;SDS011;10983;51.982;9.226;2023-04-24T06:00:38;0.90;;;0.90;;
21643;SDS011;10983;51.982;9.226;2023-04-24T06:03:08;1.00;;;1.00;;
21643;SDS011;10983;51.982;9.226;2023-04-24T06:05:36;0.20;;;0.20;;
21643;SDS011;10983;51.982;9.226;2023-04-24T06:08:04;1.13;;;1.02;;
21643;SDS011;10983;51.982;9.226;2023-04-24T06:10:31;0.25;;;0.25;;
21643;SDS011;10983;51.982;9.226;2023-04-24T06:12:59;0.77;;;0.77;;
21643;SDS011;10983;51.982;9.226;2023-04-24T06:15:28;0.65;;;0.65;;
21643;SDS011;10983;51.982;9.226;2023-04-24T06:17:57;1.40;;;0.98;;
21643;SDS011;10983;51.982;9.226;2023-04-24T06:20:25;0.80;;;0.80;;
21643;SDS011;10983;51.982;9.226;2023-04-24T06:22:52;1.33;;;1.23;;
21643;SDS011;10983;51.982;9.226;2023-04-24T06:25:21;1.05;;;1.02;;
21643;SDS011;10983;51.982;9.226;2023-04-24T06:27:48;2.42;;;2.28;;
21643;SDS011;10983;51.982;9.226;2023-04-24T06:30:16;1.50;;;1.40;;
21643;SDS011;10983;51.982;9.226;2023-04-24T06:32:43;2.10;;;1.30;;
21643;SDS011;10983;51.982;9.226;2023-04-24T06:35:12;1.42;;;1.33;;
21643;SDS011;10983;51.982;9.226;2023-04-24T06:37:41;3.42;;;3.13;;
21643;SDS011;10983;51.982;9.226;2023-04-24T06:40:09;0.50;;;0.50;;
21643;SDS011;10983;51.982;9.226;2023-04-24T06:42:39;0.50;;;0.50;;
21643;SDS011;10983;51.982;9.226;2023-04-24T06:45:07;3.88;;;2.72;;
21643;SDS011;10983;51.982;9.226;2023-04-24T06:47:34;2.10;;;1.98;;
21643;SDS011;10983;51.982;9.226;2023-04-24T06:50:02;2.60;;;2.17;;
21643;SDS011;10983;51.982;9.226;2023-04-24T06:52:31;2.20;;;2.00;;
21643;SDS011;10983;51.982;9.226;2023-04-24T06:55:02;6.85;;;2.65;;
21643;SDS011;10983;51.982;9.226;2023-04-24T06:57:30;7.10;;;1.13;;
21643;SDS011;10983;51.982;9.226;2023-04-24T06:59:58;3.33;;;2.88;;
21643;SDS011;10983;51.982;9.226;2023-04-24T07:02:25;3.47;;;2.75;;
21643;SDS011;10983;51.982;9.226;2023-04-24T07:04:55;5.07;;;3.00;;
21643;SDS011;10983;51.982;9.226;2023-04-24T07:07:23;16.75;;;3.30;;
21643;SDS011;10983;51.982;9.226;2023-04-24T07:09:52;3.13;;;2.15;;
21643;SDS011;10983;51.982;9.226;2023-04-24T07:12:20;4.28;;;2.40;;
21643;SDS011;10983;51.982;9.226;2023-04-24T07:14:47;3.15;;;2.88;;
21643;SDS011;10983;51.982;9.226;2023-04-24T07:17:15;5.25;;;2.25;;
21643;SDS011;10983;51.982;9.226;2023-04-24T07:19:43;2.80;;;2.60;;
21643;SDS011;10983;51.982;9.226;2023-04-24T07:22:11;3.67;;;2.50;;
21643;SDS011;10983;51.982;9.226;2023-04-24T07:24:42;5.63;;;3.67;;
21643;SDS011;10983;51.982;9.226;2023-04-24T07:27:12;5.68;;;3.97;;
21643;SDS011;10983;51.982;9.226;2023-04-24T07:29:41;4.25;;;2.28;;
21643;SDS011;10983;51.982;9.226;2023-04-24T07:32:09;3.05;;;2.72;;
21643;SDS011;10983;51.982;9.226;2023-04-24T07:34:37;1.08;;;1.08;;
21643;SDS011;10983;51.982;9.226;2023-04-24T07:37:07;2.47;;;2.38;;
21643;SDS011;10983;51.982;9.226;2023-04-24T07:39:34;1.40;;;1.30;;
21643;SDS011;10983;51.982;9.226;2023-04-24T07:42:02;2.40;;;2.08;;
21643;SDS011;10983;51.982;9.226;2023-04-24T07:44:30;2.65;;;1.92;;
21643;SDS011;10983;51.982;9.226;2023-04-24T07:46:58;2.58;;;1.95;;
21643;SDS011;10983;51.982;9.226;2023-04-24T07:49:25;4.75;;;2.78;;
21643;SDS011;10983;51.982;9.226;2023-04-24T07:51:53;2.70;;;2.50;;
21643;SDS011;10983;51.982;9.226;2023-04-24T07:54:21;3.10;;;1.98;;
21643;SDS011;10983;51.982;9.226;2023-04-24T07:56:49;4.07;;;3.30;;
21643;SDS011;10983;51.982;9.226;2023-04-24T07:59:16;2.42;;;2.15;;
21643;SDS011;10983;51.982;9.226;2023-04-24T08:01:45;4.10;;;2.97;;
21643;SDS011;10983;51.982;9.226;2023-04-24T08:04:12;1.10;;;1.10;;
21643;SDS011;10983;51.982;9.226;2023-04-24T08:06:40;2.30;;;2.10;;
21643;SDS011;10983;51.982;9.226;2023-04-24T08:09:10;2.88;;;2.40;;
21643;SDS011;10983;51.982;9.226;2023-04-24T08:11:37;3.00;;;2.20;;
21643;SDS011;10983;51.982;9.226;2023-04-24T08:14:05;3.47;;;1.45;;
21643;SDS011;10983;51.982;9.226;2023-04-24T08:16:34;2.42;;;2.22;;
21643;SDS011;10983;51.982;9.226;2023-04-24T08:19:03;0.85;;;0.40;;
21643;SDS011;10983;51.982;9.226;2023-04-24T08:21:31;4.28;;;1.95;;
21643;SDS011;10983;51.982;9.226;2023-04-24T08:23:58;2.95;;;2.28;;
21643;SDS011;10983;51.982;9.226;2023-04-24T08:26:26;0.52;;;0.28;;
21643;SDS011;10983;51.982;9.226;2023-04-24T08:28:54;3.72;;;2.65;;
21643;SDS011;10983;51.982;9.226;2023-04-24T08:31:21;0.57;;;0.57;;
21643;SDS011;10983;51.982;9.226;2023-04-24T08:33:51;1.58;;;1.48;;
21643;SDS011;10983;51.982;9.226;2023-04-24T08:36:19;1.33;;;1.23;;
21643;SDS011;10983;51.982;9.226;2023-04-24T08:41:18;1.15;;;1.10;;
21643;SDS011;10983;51.982;9.226;2023-04-24T08:43:49;1.20;;;1.20;;
21643;SDS011;10983;51.982;9.226;2023-04-24T08:46:21;19.85;;;2.20;;
21643;SDS011;10983;51.982;9.226;2023-04-24T08:48:50;1.88;;;1.75;;
21643;SDS011;10983;51.982;9.226;2023-04-24T08:51:20;8.20;;;1.55;;
21643;SDS011;10983;51.982;9.226;2023-04-24T08:53:48;0.50;;;0.50;;
21643;SDS011;10983;51.982;9.226;2023-04-24T08:56:16;0.17;;;0.17;;
21643;SDS011;10983;51.982;9.226;2023-04-24T08:58:44;1.67;;;1.58;;
21643;SDS011;10983;51.982;9.226;2023-04-24T09:01:11;0.85;;;0.85;;
21643;SDS011;10983;51.982;9.226;2023-04-24T09:03:39;1.27;;;0.63;;
21643;SDS011;10983;51.982;9.226;2023-04-24T09:06:08;1.33;;;1.23;;
21643;SDS011;10983;51.982;9.226;2023-04-24T09:08:41;0.55;;;0.55;;
21643;SDS011;10983;51.982;9.226;2023-04-24T09:11:10;18.40;;;1.05;;
21643;SDS011;10983;51.982;9.226;2023-04-24T09:13:38;1.00;;;0.57;;
21643;SDS011;10983;51.982;9.226;2023-04-24T09:16:06;0.90;;;0.90;;
21643;SDS011;10983;51.982;9.226;2023-04-24T09:18:34;0.88;;;0.85;;
21643;SDS011;10983;51.982;9.226;2023-04-24T09:21:02;2.03;;;1.35;;
21643;SDS011;10983;51.982;9.226;2023-04-24T09:23:31;1.00;;;1.00;;
21643;SDS011;10983;51.982;9.226;2023-04-24T09:26:02;0.90;;;0.90;;
21643;SDS011;10983;51.982;9.226;2023-04-24T09:28:37;1.42;;;1.33;;
21643;SDS011;10983;51.982;9.226;2023-04-24T09:31:06;1.90;;;1.80;;
21643;SDS011;10983;51.982;9.226;2023-04-24T09:33:35;0.43;;;0.38;;
21643;SDS011;10983;51.982;9.226;2023-04-24T09:36:04;1.80;;;1.10;;
21643;SDS011;10983;51.982;9.226;2023-04-24T09:38:33;2.75;;;1.52;;
21643;SDS011;10983;51.982;9.226;2023-04-24T09:41:04;0.80;;;0.80;;
21643;SDS011;10983;51.982;9.226;2023-04-24T09:43:35;1.08;;;1.08;;
21643;SDS011;10983;51.982;9.226;2023-04-24T09:46:04;2.05;;;1.13;;
21643;SDS011;10983;51.982;9.226;2023-04-24T09:48:33;0.63;;;0.63;;
21643;SDS011;10983;51.982;9.226;2023-04-24T09:51:03;0.40;;;0.40;;
21643;SDS011;10983;51.982;9.226;2023-04-24T09:53:33;0.22;;;0.22;;
21643;SDS011;10983;51.982;9.226;2023-04-24T09:56:08;1.25;;;1.05;;
21643;SDS011;10983;51.982;9.226;2023-04-24T09:58:36;1.10;;;0.80;;
21643;SDS011;10983;51.982;9.226;2023-04-24T10:01:04;0.00;;;0.00;;
21643;SDS011;10983;51.982;9.226;2023-04-24T10:03:32;9.32;;;1.50;;
21643;SDS011;10983;51.982;9.226;2023-04-24T10:06:01;0.63;;;0.63;;
21643;SDS011;10983;51.982;9.226;2023-04-24T10:08:34;0.35;;;0.35;;
21643;SDS011;10983;51.982;9.226;2023-04-24T10:11:03;0.20;;;0.20;;
21643;SDS011;10983;51.982;9.226;2023-04-24T10:13:32;1.95;;;1.40;;
21643;SDS011;10983;51.982;9.226;2023-04-24T10:16:00;1.30;;;1.20;;
21643;SDS011;10983;51.982;9.226;2023-04-24T10:18:31;0.98;;;0.98;;
21643;SDS011;10983;51.982;9.226;2023-04-24T10:20:59;0.10;;;0.10;;
21643;SDS011;10983;51.982;9.226;2023-04-24T10:23:29;0.68;;;0.68;;
21643;SDS011;10983;51.982;9.226;2023-04-24T10:25:57;0.60;;;0.60;;
21643;SDS011;10983;51.982;9.226;2023-04-24T10:28:27;1.00;;;1.00;;
21643;SDS011;10983;51.982;9.226;2023-04-24T10:30:59;0.70;;;0.70;;
21643;SDS011;10983;51.982;9.226;2023-04-24T10:33:27;0.57;;;0.57;;
21643;SDS011;10983;51.982;9.226;2023-04-24T10:35:57;0.93;;;0.73;;
21643;SDS011;10983;51.982;9.226;2023-04-24T10:38:26;1.15;;;1.08;;
21643;SDS011;10983;51.982;9.226;2023-04-24T10:40:57;0.65;;;0.65;;
21643;SDS011;10983;51.982;9.226;2023-04-24T10:43:34;1.27;;;1.17;;
21643;SDS011;10983;51.982;9.226;2023-04-24T10:46:03;1.75;;;1.13;;
21643;SDS011;10983;51.982;9.226;2023-04-24T10:48:33;0.45;;;0.45;;
21643;SDS011;10983;51.982;9.226;2023-04-24T10:51:00;0.32;;;0.32;;
21643;SDS011;10983;51.982;9.226;2023-04-24T10:53:28;0.08;;;0.08;;
21643;SDS011;10983;51.982;9.226;2023-04-24T10:55:57;0.45;;;0.45;;
21643;SDS011;10983;51.982;9.226;2023-04-24T10:58:35;0.63;;;0.63;;
21643;SDS011;10983;51.982;9.226;2023-04-24T11:01:05;1.65;;;1.55;;
21643;SDS011;10983;51.982;9.226;2023-04-24T11:03:34;1.08;;;1.08;;
21643;SDS011;10983;51.982;9.226;2023-04-24T11:06:03;0.85;;;0.85;;
21643;SDS011;10983;51.982;9.226;2023-04-24T11:08:32;0.10;;;0.10;;
21643;SDS011;10983;51.982;9.226;2023-04-24T11:11:08;0.68;;;0.68;;
21643;SDS011;10983;51.982;9.226;2023-04-24T11:16:32;1.35;;;1.05;;
21643;SDS011;10983;51.982;9.226;2023-04-24T11:19:03;0.28;;;0.28;;
21643;SDS011;10983;51.982;9.226;2023-04-24T11:21:32;0.30;;;0.30;;
21643;SDS011;10983;51.982;9.226;2023-04-24T11:24:22;0.20;;;0.20;;
21643;SDS011;10983;51.982;9.226;2023-04-24T11:26:51;0.43;;;0.43;;
21643;SDS011;10983;51.982;9.226;2023-04-24T11:29:19;0.25;;;0.25;;
21643;SDS011;10983;51.982;9.226;2023-04-24T11:31:51;1.63;;;1.52;;
21643;SDS011;10983;51.982;9.226;2023-04-24T11:34:18;0.22;;;0.22;;
21643;SDS011;10983;51.982;9.226;2023-04-24T11:36:47;0.30;;;0.30;;
21643;SDS011;10983;51.982;9.226;2023-04-24T11:39:16;1.50;;;0.65;;
21643;SDS011;10983;51.982;9.226;2023-04-24T11:41:43;0.20;;;0.20;;
21643;SDS011;10983;51.982;9.226;2023-04-24T11:44:10;0.30;;;0.30;;
21643;SDS011;10983;51.982;9.226;2023-04-24T11:46:38;0.52;;;0.43;;
21643;SDS011;10983;51.982;9.226;2023-04-24T11:49:08;0.60;;;0.60;;
21643;SDS011;10983;51.982;9.226;2023-04-24T11:51:35;0.57;;;0.57;;
21643;SDS011;10983;51.982;9.226;2023-04-24T11:54:17;0.43;;;0.43;;
21643;SDS011;10983;51.982;9.226;2023-04-24T11:56:45;0.20;;;0.20;;
21643;SDS011;10983;51.982;9.226;2023-04-24T11:59:14;0.10;;;0.10;;
21643;SDS011;10983;51.982;9.226;2023-04-24T12:01:43;0.45;;;0.45;;
21643;SDS011;10983;51.982;9.226;2023-04-24T12:04:13;1.33;;;0.60;;
21643;SDS011;10983;51.982;9.226;2023-04-24T12:09:27;0.43;;;0.43;;
21643;SDS011;10983;51.982;9.226;2023-04-24T12:11:57;0.22;;;0.22;;
21643;SDS011;10983;51.982;9.226;2023-04-24T12:14:25;0.68;;;0.43;;
21643;SDS011;10983;51.982;9.226;2023-04-24T12:16:52;0.75;;;0.75;;
21643;SDS011;10983;51.982;9.226;2023-04-24T12:19:22;0.10;;;0.10;;
21643;SDS011;10983;51.982;9.226;2023-04-24T12:21:59;1.27;;;0.47;;
21643;SDS011;10983;51.982;9.226;2023-04-24T12:24:27;0.40;;;0.40;;
21643;SDS011;10983;51.982;9.226;2023-04-24T12:26:55;0.73;;;0.73;;
21643;SDS011;10983;51.982;9.226;2023-04-24T12:29:23;2.05;;;1.23;;
21643;SDS011;10983;51.982;9.226;2023-04-24T12:31:51;1.30;;;0.85;;
21643;SDS011;10983;51.982;9.226;2023-04-24T12:34:20;0.70;;;0.70;;
21643;SDS011;10983;51.982;9.226;2023-04-24T12:36:50;1.38;;;1.30;;
21643;SDS011;10983;51.982;9.226;2023-04-24T12:39:18;2.10;;;0.75;;
21643;SDS011;10983;51.982;9.226;2023-04-24T12:41:58;0.95;;;0.95;;
21643;SDS011;10983;51.982;9.226;2023-04-24T12:44:30;2.17;;;1.30;;
21643;SDS011;10983;51.982;9.226;2023-04-24T12:49:29;0.55;;;0.55;;
21643;SDS011;10983;51.982;9.226;2023-04-24T12:51:57;0.50;;;0.50;;
21643;SDS011;10983;51.982;9.226;2023-04-24T12:54:24;0.57;;;0.57;;
21643;SDS011;10983;51.982;9.226;2023-04-24T12:56:52;0.32;;;0.32;;
21643;SDS011;10983;51.982;9.226;2023-04-24T12:59:19;0.50;;;0.50;;
21643;SDS011;10983;51.982;9.226;2023-04-24T13:01:47;0.25;;;0.25;;
21643;SDS011;10983;51.982;9.226;2023-04-24T13:04:14;0.40;;;0.40;;
21643;SDS011;10983;51.982;9.226;2023-04-24T13:06:49;0.35;;;0.35;;
21643;SDS011;10983;51.982;9.226;2023-04-24T13:09:16;0.40;;;0.40;;
21643;SDS011;10983;51.982;9.226;2023-04-24T13:11:44;0.52;;;0.52;;
21643;SDS011;10983;51.982;9.226;2023-04-24T13:14:11;0.73;;;0.73;;
21643;SDS011;10983;51.982;9.226;2023-04-24T13:16:39;0.70;;;0.70;;
21643;SDS011;10983;51.982;9.226;2023-04-24T13:19:06;1.73;;;1.20;;
21643;SDS011;10983;51.982;9.226;2023-04-24T13:21:34;0.80;;;0.80;;
21643;SDS011;10983;51.982;9.226;2023-04-24T13:24:02;1.20;;;1.20;;
21643;SDS011;10983;51.982;9.226;2023-04-24T13:26:33;1.17;;;1.13;;
21643;SDS011;10983;51.982;9.226;2023-04-24T13:29:01;2.50;;;2.25;;
21643;SDS011;10983;51.982;9.226;2023-04-24T13:31:30;1.13;;;1.10;;
21643;SDS011;10983;51.982;9.226;2023-04-24T13:33:58;1.27;;;1.17;;
21643;SDS011;10983;51.982;9.226;2023-04-24T13:36:26;2.22;;;0.90;;
21643;SDS011;10983;51.982;9.226;2023-04-24T13:38:55;1.65;;;1.25;;
21643;SDS011;10983;51.982;9.226;2023-04-24T13:41:24;0.73;;;0.73;;
21643;SDS011;10983;51.982;9.226;2023-04-24T13:43:51;2.75;;;1.85;;
21643;SDS011;10983;51.982;9.226;2023-04-24T13:46:20;1.40;;;1.30;;
21643;SDS011;10983;51.982;9.226;2023-04-24T13:48:48;0.30;;;0.25;;
21643;SDS011;10983;51.982;9.226;2023-04-24T13:51:15;10.05;;;1.48;;
21643;SDS011;10983;51.982;9.226;2023-04-24T13:53:45;1.88;;;1.38;;
21643;SDS011;10983;51.982;9.226;2023-04-24T13:56:12;1.33;;;1.23;;
21643;SDS011;10983;51.982;9.226;2023-04-24T13:58:41;0.75;;;0.75;;
21643;SDS011;10983;51.982;9.226;2023-04-24T14:01:09;2.47;;;2.28;;
21643;SDS011;10983;51.982;9.226;2023-04-24T14:03:37;0.77;;;0.77;;
21643;SDS011;10983;51.982;9.226;2023-04-24T14:06:05;1.08;;;1.02;;
21643;SDS011;10983;51.982;9.226;2023-04-24T14:08:33;0.40;;;0.40;;
21643;SDS011;10983;51.982;9.226;2023-04-24T14:11:00;1.30;;;0.93;;
21643;SDS011;10983;51.982;9.226;2023-04-24T14:13:29;1.33;;;1.23;;
21643;SDS011;10983;51.982;9.226;2023-04-24T14:15:58;0.65;;;0.65;;
21643;SDS011;10983;51.982;9.226;2023-04-24T14:18:26;2.33;;;2.00;;
21643;SDS011;10983;51.982;9.226;2023-04-24T14:20:53;2.13;;;2.03;;
21643;SDS011;10983;51.982;9.226;2023-04-24T14:23:21;2.75;;;2.55;;
21643;SDS011;10983;51.982;9.226;2023-04-24T14:25:49;2.72;;;2.45;;
21643;SDS011;10983;51.982;9.226;2023-04-24T14:28:18;2.42;;;2.03;;
21643;SDS011;10983;51.982;9.226;2023-04-24T14:30:46;0.95;;;0.95;;
21643;SDS011;10983;51.982;9.226;2023-04-24T14:33:15;3.40;;;2.65;;
21643;SDS011;10983;51.982;9.226;2023-04-24T14:35:42;1.92;;;1.80;;
21643;SDS011;10983;51.982;9.226;2023-04-24T14:38:10;2.25;;;2.05;;
21643;SDS011;10983;51.982;9.226;2023-04-24T14:40:38;12.20;;;2.17;;
21643;SDS011;10983;51.982;9.226;2023-04-24T14:43:08;11.85;;;3.88;;
21643;SDS011;10983;51.982;9.226;2023-04-24T14:45:36;6.35;;;2.42;;
21643;SDS011;10983;51.982;9.226;2023-04-24T14:48:04;14.70;;;5.18;;
21643;SDS011;10983;51.982;9.226;2023-04-24T14:50:35;4.90;;;1.42;;
21643;SDS011;10983;51.982;9.226;2023-04-24T14:53:03;6.78;;;2.47;;
21643;SDS011;10983;51.982;9.226;2023-04-24T14:55:31;2.97;;;2.22;;
21643;SDS011;10983;51.982;9.226;2023-04-24T14:58:00;4.00;;;3.60;;
21643;SDS011;10983;51.982;9.226;2023-04-24T15:00:27;0.40;;;0.40;;
21643;SDS011;10983;51.982;9.226;2023-04-24T15:02:55;3.63;;;2.47;;
21643;SDS011;10983;51.982;9.226;2023-04-24T15:05:23;5.43;;;2.65;;